createdAt,value
2018-04-23T00:00:38.637Z,100084.55
2018-04-23T00:03:06.215Z,100079.95
2018-04-23T00:05:33.768Z,100081.08
2018-04-23T00:08:01.320Z,100074.02
2018-04-23T00:10:28.900Z,100074.89
2018-04-23T00:12:56.479Z,100076.61
2018-04-23T00:15:24.081Z,100068.14
2018-04-23T00:17:51.888Z,100072.05
2018-04-23T00:20:19.461Z,100068.55
2018-04-23T00:22:47.008Z,100065.25
2018-04-23T00:25:14.559Z,100069.07
2018-04-23T00:27:42.328Z,100066.80
2018-04-23T00:30:09.875Z,100069.73
2018-04-23T00:32:37.431Z,100067.37
2018-04-23T00:35:04.984Z,100068.66
2018-04-23T00:37:32.546Z,100070.41
2018-04-23T00:40:00.110Z,100063.96
2018-04-23T00:42:27.680Z,100061.33
2018-04-23T00:44:55.254Z,100063.81
2018-04-23T00:47:22.833Z,100062.57
2018-04-23T00:49:50.406Z,100062.52
2018-04-23T00:52:17.965Z,100063.56
2018-04-23T00:54:45.547Z,100062.73
2018-04-23T00:57:13.109Z,100063.09
2018-04-23T00:59:40.654Z,100057.05
2018-04-23T01:02:08.278Z,100057.05
2018-04-23T01:04:35.834Z,100048.77
2018-04-23T01:07:03.398Z,100051.34
2018-04-23T01:09:31.022Z,100050.91
2018-04-23T01:11:58.624Z,100059.48
2018-04-23T01:14:26.212Z,100060.09
2018-04-23T01:16:53.797Z,100055.77
2018-04-23T01:19:21.362Z,100056.22
2018-04-23T01:21:49.176Z,100051.59
2018-04-23T01:24:16.763Z,100051.64
2018-04-23T01:26:44.374Z,100055.51
2018-04-23T01:29:11.943Z,100057.67
2018-04-23T01:31:39.497Z,100068.86
2018-04-23T01:34:07.079Z,100065.20
2018-04-23T01:36:34.659Z,100070.41
2018-04-23T01:39:02.260Z,100063.09
2018-04-23T01:41:29.806Z,100060.81
2018-04-23T01:43:57.373Z,100062.93
2018-04-23T01:46:24.959Z,100063.30
2018-04-23T01:48:52.535Z,100062.52
2018-04-23T01:51:20.104Z,100063.03
2018-04-23T01:53:47.732Z,100066.58
2018-04-23T01:56:15.296Z,100066.13
2018-04-23T01:58:42.855Z,100064.94
2018-04-23T02:01:10.392Z,100068.95
2018-04-23T02:03:38.160Z,100081.63
2018-04-23T02:06:05.703Z,100072.44
2018-04-23T02:08:33.259Z,100075.28
2018-04-23T02:11:00.811Z,100067.12
2018-04-23T02:13:28.389Z,100071.92
2018-04-23T02:15:55.950Z,100071.64
2018-04-23T02:18:23.524Z,100069.44
2018-04-23T02:20:51.097Z,100066.38
2018-04-23T02:23:18.664Z,100067.13
2018-04-23T02:25:46.228Z,100066.86
2018-04-23T02:28:13.807Z,100063.86
2018-04-23T02:30:41.373Z,100069.89
2018-04-23T02:33:08.934Z,100069.53
2018-04-23T02:35:36.510Z,100064.47
2018-04-23T02:38:04.060Z,100070.31
2018-04-23T02:40:31.613Z,100060.79
2018-04-23T02:42:59.247Z,100068.00
2018-04-23T02:45:26.895Z,100073.94
2018-04-23T02:47:54.530Z,100071.50
2018-04-23T02:50:22.203Z,100070.98
2018-04-23T02:52:49.764Z,100073.57
2018-04-23T02:55:17.329Z,100081.38
2018-04-23T02:57:44.973Z,100080.93
2018-04-23T03:00:12.551Z,100081.34
2018-04-23T03:02:40.220Z,100080.16
2018-04-23T03:05:07.831Z,100081.30
2018-04-23T03:07:35.444Z,100077.02
2018-04-23T03:10:03.176Z,100077.79
2018-04-23T03:12:30.795Z,100077.79
2018-04-23T03:14:58.365Z,100077.55
2018-04-23T03:17:26.161Z,100072.21
2018-04-23T03:19:53.712Z,100073.71
2018-04-23T03:22:21.253Z,100078.16
2018-04-23T03:24:48.933Z,100083.12
2018-04-23T03:27:16.501Z,100074.30
2018-04-23T03:29:44.123Z,100079.73
2018-04-23T03:32:11.829Z,100087.72
2018-04-23T03:34:39.465Z,100093.05
2018-04-23T03:37:07.454Z,100155.33
2018-04-23T03:39:35.036Z,100163.84
2018-04-23T03:42:02.678Z,100178.45
2018-04-23T03:44:30.299Z,100176.69
2018-04-23T03:46:57.882Z,100179.84
2018-04-23T03:49:25.498Z,100193.66
2018-04-23T03:51:53.139Z,100185.39
2018-04-23T03:54:20.685Z,100182.09
2018-04-23T03:56:48.582Z,100182.59
2018-04-23T03:59:16.227Z,100187.48
2018-04-23T04:01:43.845Z,100190.15
2018-04-23T04:04:11.557Z,100196.33
2018-04-23T04:06:39.154Z,100196.88
2018-04-23T04:09:06.732Z,100198.30
2018-04-23T04:11:34.328Z,100196.97
2018-04-23T04:17:05.477Z,100191.08
2018-04-23T04:19:33.088Z,100158.45
2018-04-23T04:22:01.261Z,100142.81
2018-04-23T04:24:28.834Z,100135.73
2018-04-23T04:26:56.397Z,100133.57
2018-04-23T04:29:24.200Z,100123.63
2018-04-23T04:31:51.792Z,100114.28
2018-04-23T04:34:19.411Z,100106.82
2018-04-23T04:36:47.786Z,100110.59
2018-04-23T04:39:15.447Z,100112.29
2018-04-23T04:41:43.011Z,100118.02
2018-04-23T04:44:10.691Z,100111.97
2018-04-23T04:46:38.256Z,100119.88
2018-04-23T04:49:05.934Z,100119.83
2018-04-23T04:51:33.510Z,100122.09
2018-04-23T04:54:01.933Z,100126.84
2018-04-23T04:56:29.543Z,100129.09
2018-04-23T04:58:57.152Z,100114.09
2018-04-23T06:32:21.802Z,100210.75
2018-04-23T06:34:49.361Z,100212.77
2018-04-23T06:37:16.975Z,100216.22
2018-04-23T06:39:44.609Z,100221.96
2018-04-23T06:42:12.190Z,100223.96
2018-04-23T06:47:06.675Z,100227.58
2018-04-23T06:49:34.245Z,100231.86
2018-04-23T06:52:01.933Z,100238.70
2018-04-23T06:54:29.514Z,100238.02
2018-04-23T06:56:57.070Z,100224.19
2018-04-23T06:59:24.650Z,100224.20
2018-04-23T07:01:52.248Z,100222.63
2018-04-23T07:04:19.854Z,100223.56
2018-04-23T07:06:47.480Z,100223.87
2018-04-23T07:09:15.071Z,100220.16
2018-04-23T07:11:42.681Z,100220.11
2018-04-23T07:14:10.246Z,100219.42
2018-04-23T07:16:37.858Z,100216.23
2018-04-23T07:19:05.418Z,100220.05
2018-04-23T07:21:32.997Z,100217.41
2018-04-23T07:24:00.590Z,100208.41
2018-04-23T07:26:28.147Z,100204.03
2018-04-23T07:28:55.731Z,100215.53
2018-04-23T07:31:23.316Z,100221.89
2018-04-23T07:33:50.891Z,100219.70
2018-04-23T07:36:18.455Z,100217.53
2018-04-23T07:38:46.005Z,100214.34
2018-04-23T07:41:13.629Z,100218.61
2018-04-23T07:43:41.209Z,100234.47
2018-04-23T07:46:08.787Z,100233.27
2018-04-23T07:48:36.375Z,100230.34
2018-04-23T07:51:03.930Z,100240.27
2018-04-23T07:53:31.515Z,100244.16
2018-04-23T07:55:59.149Z,100246.89
2018-04-23T07:58:26.715Z,100244.06
2018-04-23T08:00:54.289Z,100248.73
2018-04-23T08:03:21.900Z,100250.27
2018-04-23T08:05:49.469Z,100252.18
2018-04-23T08:08:17.978Z,100258.17
2018-04-23T08:10:45.543Z,100266.63
2018-04-23T08:13:13.093Z,100262.86
2018-04-23T08:15:40.665Z,100266.03
2018-04-23T08:18:08.321Z,100264.22
2018-04-23T08:20:35.888Z,100268.17
2018-04-23T08:23:03.501Z,100273.71
2018-04-23T08:25:31.224Z,100273.49
2018-04-23T08:27:58.791Z,100270.06
2018-04-23T08:30:26.338Z,100266.25
2018-04-23T08:32:53.922Z,100266.98
2018-04-23T08:35:21.685Z,100262.61
2018-04-23T08:37:49.297Z,100269.80
2018-04-23T08:40:16.908Z,100268.72
2018-04-23T08:42:44.485Z,100269.45
2018-04-23T08:45:12.089Z,100276.16
2018-04-23T08:47:39.696Z,100270.83
2018-04-23T08:50:07.446Z,100275.27
2018-04-23T08:52:35.001Z,100281.27
2018-04-23T08:55:02.564Z,100287.91
2018-04-23T08:57:30.128Z,100285.23
2018-04-23T08:59:57.725Z,100288.54
2018-04-23T09:02:25.288Z,100290.68
2018-04-23T09:04:52.863Z,100291.14
2018-04-23T09:07:20.522Z,100293.19
2018-04-23T09:09:48.184Z,100303.31
2018-04-23T09:12:15.748Z,100313.55
2018-04-23T09:14:43.310Z,100307.83
2018-04-23T09:17:10.869Z,100304.75
2018-04-23T09:19:38.430Z,100306.45
2018-04-23T09:22:06.010Z,100311.16
2018-04-23T09:24:33.584Z,100315.22
2018-04-23T09:27:01.229Z,100312.13
2018-04-23T09:29:28.807Z,100318.12
2018-04-23T09:31:56.393Z,100314.44
2018-04-23T09:34:23.975Z,100308.00
2018-04-23T09:36:51.566Z,100307.31
2018-04-23T09:39:19.448Z,100312.87
2018-04-23T09:41:47.024Z,100318.17
2018-04-23T09:44:14.577Z,100311.59
2018-04-23T09:46:42.233Z,100315.08
2018-04-23T09:49:09.844Z,100321.02
2018-04-23T09:51:37.409Z,100324.22
2018-04-23T09:54:04.971Z,100321.30
2018-04-23T09:56:32.554Z,100323.34
2018-04-23T09:59:00.152Z,100314.87
2018-04-23T10:01:29.516Z,100311.83
2018-04-23T10:04:11.983Z,100315.42
2018-04-23T10:06:39.557Z,100314.96
2018-04-23T10:09:07.277Z,100317.94
2018-04-23T10:11:35.048Z,100321.50
2018-04-23T10:14:02.638Z,100319.77
2018-04-23T10:16:30.506Z,100327.23
2018-04-23T10:18:58.075Z,100329.91
2018-04-23T10:21:25.659Z,100330.33
2018-04-23T10:23:53.236Z,100331.70
2018-04-23T10:26:20.812Z,100333.19
2018-04-23T10:28:48.411Z,100333.83
2018-04-23T10:31:16.014Z,100327.92
2018-04-23T10:33:43.585Z,100325.40
2018-04-23T10:36:11.191Z,100323.91
2018-04-23T10:38:38.852Z,100334.39
2018-04-23T10:41:06.470Z,100337.38
2018-04-23T10:43:34.150Z,100338.11
2018-04-23T10:46:01.742Z,100340.68
2018-04-23T10:48:29.710Z,100332.85
2018-04-23T10:50:57.412Z,100338.75
2018-04-23T10:53:24.975Z,100341.14
2018-04-23T10:55:52.549Z,100349.81
2018-04-23T10:58:20.345Z,100348.72
2018-04-23T11:00:47.964Z,100348.33
2018-04-23T11:03:16.136Z,100352.95
2018-04-23T11:05:43.720Z,100353.25
2018-04-23T11:08:11.471Z,100357.28
2018-04-23T11:10:39.049Z,100353.71
2018-04-23T11:13:06.589Z,100353.38
2018-04-23T11:15:34.170Z,100352.16
2018-04-23T11:18:01.751Z,100351.95
2018-04-23T11:20:29.319Z,100353.91
2018-04-23T11:22:56.879Z,100352.15
2018-04-23T11:25:24.420Z,100358.42
2018-04-23T11:27:51.984Z,100361.12
2018-04-23T11:30:19.570Z,100360.60
2018-04-23T11:32:47.157Z,100369.33
2018-04-23T11:35:14.711Z,100368.89
2018-04-23T11:37:42.262Z,100371.88
2018-04-23T11:40:09.818Z,100379.45
2018-04-23T11:42:37.688Z,100375.39
2018-04-23T11:45:05.280Z,100369.54
2018-04-23T11:47:32.853Z,100375.48
2018-04-23T11:50:00.667Z,100369.80
2018-04-23T11:52:28.267Z,100370.23
2018-04-23T11:54:55.814Z,100371.59
2018-04-23T11:57:23.377Z,100371.31
2018-04-23T11:59:50.931Z,100382.13
2018-04-23T12:02:18.469Z,100374.48
2018-04-23T12:04:46.061Z,100379.50
2018-04-23T12:07:13.653Z,100386.25
2018-04-23T12:09:41.233Z,100387.34
2018-04-23T12:12:08.813Z,100396.09
2018-04-23T12:14:36.422Z,100386.22
2018-04-23T12:17:03.983Z,100386.83
2018-04-23T12:19:31.539Z,100382.20
2018-04-23T12:21:59.158Z,100377.23
2018-04-23T12:24:26.716Z,100381.23
2018-04-23T12:26:54.301Z,100383.23
2018-04-23T12:29:22.141Z,100384.70
2018-04-23T12:31:49.699Z,100380.11
2018-04-23T12:34:17.398Z,100373.46
2018-04-23T12:36:45.131Z,100369.98
2018-04-23T12:39:12.686Z,100383.13
2018-04-23T12:41:40.275Z,100386.71
2018-04-23T12:44:07.835Z,100374.80
2018-04-23T12:46:35.404Z,100369.84
2018-04-23T12:49:03.007Z,100369.73
2018-04-23T12:51:30.562Z,100394.47
2018-04-23T12:53:58.220Z,100390.98
2018-04-23T12:56:25.829Z,100381.05
2018-04-23T12:58:53.374Z,100387.07
2018-04-23T13:01:20.962Z,100378.04
2018-04-23T13:03:48.512Z,100373.50
2018-04-23T13:06:16.101Z,100380.83
2018-04-23T13:08:43.667Z,100378.23
2018-04-23T13:11:11.225Z,100379.00
2018-04-23T13:13:38.853Z,100378.55
2018-04-23T13:16:06.529Z,100374.34
2018-04-23T13:18:34.081Z,100366.34
2018-04-23T13:21:01.646Z,100364.62
2018-04-23T13:23:29.197Z,100372.58
2018-04-23T13:25:56.934Z,100376.06
2018-04-23T13:28:24.473Z,100376.02
2018-04-23T13:30:52.025Z,100364.34
2018-04-23T13:33:19.584Z,100370.73
2018-04-23T13:35:47.144Z,100366.16
2018-04-23T13:38:14.707Z,100369.11
2018-04-23T13:40:42.277Z,100363.63
2018-04-23T13:43:09.895Z,100348.11
2018-04-23T13:45:37.572Z,100355.05
2018-04-23T13:48:05.193Z,100361.77
2018-04-23T13:50:32.968Z,100363.05
2018-04-23T13:53:00.567Z,100363.14
2018-04-23T13:55:28.183Z,100362.37
2018-04-23T13:57:55.814Z,100351.92
2018-04-23T14:00:23.352Z,100350.83
2018-04-23T14:02:51.008Z,100358.43
2018-04-23T14:05:18.600Z,100350.18
2018-04-23T14:07:46.147Z,100343.80
2018-04-23T14:10:13.701Z,100351.94
2018-04-23T14:12:41.296Z,100353.17
2018-04-23T14:15:08.856Z,100348.58
2018-04-23T14:17:36.405Z,100350.44
2018-04-23T14:20:03.978Z,100344.55
2018-04-23T14:22:31.667Z,100336.77
2018-04-23T14:24:59.456Z,100351.28
2018-04-23T14:27:27.018Z,100347.09
2018-04-23T14:29:54.604Z,100344.12
2018-04-23T14:32:22.171Z,100351.05
2018-04-23T14:34:49.737Z,100342.73
2018-04-23T14:37:17.337Z,100346.25
2018-04-23T14:39:44.966Z,100347.91
2018-04-23T14:42:12.542Z,100339.39
2018-04-23T14:44:40.146Z,100346.34
2018-04-23T14:47:07.711Z,100345.87
2018-04-23T14:49:35.268Z,100342.17
2018-04-23T14:52:03.004Z,100341.42
2018-04-23T14:54:30.560Z,100346.47
2018-04-23T14:56:58.136Z,100347.43
2018-04-23T14:59:25.709Z,100344.69
2018-04-23T15:01:53.302Z,100355.73
2018-04-23T15:04:20.861Z,100355.58
2018-04-23T15:06:48.422Z,100356.95
2018-04-23T15:09:16.169Z,100356.41
2018-04-23T15:11:43.701Z,100360.35
2018-04-23T15:14:11.329Z,100351.83
2018-04-23T15:16:38.881Z,100359.70
2018-04-23T15:19:06.451Z,100360.69
2018-04-23T15:21:34.089Z,100366.24
2018-04-23T15:24:01.654Z,100362.66
2018-04-23T15:26:29.295Z,100368.84
2018-04-23T15:28:56.823Z,100363.86
2018-04-23T15:31:24.878Z,100361.08
2018-04-23T15:33:52.467Z,100363.47
2018-04-23T15:36:20.195Z,100371.44
2018-04-23T15:38:47.776Z,100367.98
2018-04-23T15:41:15.335Z,100373.59
2018-04-23T15:43:42.917Z,100369.14
2018-04-23T15:46:10.487Z,100373.61
2018-04-23T15:48:38.045Z,100370.00
2018-04-23T15:51:05.637Z,100367.70
2018-04-23T15:53:33.461Z,100367.07
2018-04-23T15:56:01.160Z,100374.94
2018-04-23T15:58:28.897Z,100374.77
2018-04-23T16:00:56.417Z,100370.00
2018-04-23T16:03:23.969Z,100374.76
2018-04-23T16:05:51.531Z,100369.83
2018-04-23T16:08:19.081Z,100367.48
2018-04-23T16:10:46.673Z,100367.22
2018-04-23T16:13:14.386Z,100359.86
2018-04-23T16:15:41.948Z,100361.20
2018-04-23T16:18:09.609Z,100361.83
2018-04-23T16:20:37.165Z,100359.94
2018-04-23T16:23:05.056Z,100365.27
2018-04-23T16:25:32.621Z,100363.22
2018-04-23T16:28:00.178Z,100367.31
2018-04-23T16:30:27.783Z,100366.02
2018-04-23T16:32:55.556Z,100373.70
2018-04-23T16:35:23.924Z,100374.23
2018-04-23T16:37:51.721Z,100370.13
2018-04-23T16:40:19.277Z,100375.55
2018-04-23T16:42:46.818Z,100372.70
2018-04-23T16:45:14.696Z,100376.59
2018-04-23T16:47:42.260Z,100378.28
2018-04-23T16:50:10.683Z,100384.23
2018-04-23T16:52:38.301Z,100390.00
2018-04-23T16:55:05.862Z,100392.38
2018-04-23T16:57:33.497Z,100392.47
2018-04-23T17:00:01.086Z,100392.95
2018-04-23T17:02:28.821Z,100391.72
2018-04-23T17:04:56.379Z,100396.77
2018-04-23T17:07:23.942Z,100399.18
2018-04-23T17:09:51.510Z,100402.31
2018-04-23T17:12:19.140Z,100401.48
2018-04-23T17:14:46.906Z,100401.95
2018-04-23T17:17:14.453Z,100399.41
2018-04-23T17:19:42.007Z,100403.66
2018-04-23T17:22:09.554Z,100414.30
2018-04-23T17:24:37.180Z,100412.17
2018-04-23T17:27:04.712Z,100411.36
2018-04-23T17:29:32.349Z,100411.61
2018-04-23T17:31:59.870Z,100415.47
2018-04-23T17:34:27.454Z,100419.25
2018-04-23T17:36:55.283Z,100419.41
2018-04-23T17:39:22.853Z,100421.11
2018-04-23T17:41:51.124Z,100426.53
2018-04-23T17:44:20.424Z,100432.89
2018-04-23T17:46:49.429Z,100432.94
2018-04-23T17:49:17.796Z,100438.80
2018-04-23T17:51:46.833Z,100433.87
2018-04-23T17:54:15.173Z,100438.20
2018-04-23T17:56:44.978Z,100440.58
2018-04-23T17:59:14.084Z,100436.16
2018-04-23T18:01:41.940Z,100442.12
2018-04-23T18:04:09.938Z,100441.09
2018-04-23T18:06:37.514Z,100448.88
2018-04-23T18:09:05.957Z,100452.22
2018-04-23T18:11:33.721Z,100463.52
2018-04-23T18:14:01.334Z,100468.08
2018-04-23T18:16:30.013Z,100466.88
2018-04-23T18:18:57.999Z,100471.84
2018-04-23T18:21:26.131Z,100472.52
2018-04-23T18:23:53.683Z,100478.58
2018-04-23T18:26:21.742Z,100481.27
2018-04-23T18:28:49.283Z,100481.10
2018-04-23T18:31:16.851Z,100491.06
2018-04-23T18:33:44.499Z,100490.92
2018-04-23T18:36:12.101Z,100487.72
2018-04-23T18:38:39.701Z,100487.20
2018-04-23T18:41:07.326Z,100489.97
2018-04-23T18:43:34.923Z,100493.86
2018-04-23T18:46:02.501Z,100505.97
2018-04-23T18:48:30.105Z,100505.61
2018-04-23T18:50:58.064Z,100509.16
2018-04-23T18:53:25.772Z,100507.51
2018-04-23T18:55:53.573Z,100509.22
2018-04-23T18:58:21.145Z,100509.59
2018-04-23T19:00:48.785Z,100516.94
2018-04-23T19:03:16.494Z,100522.00
2018-04-23T19:05:44.111Z,100526.91
2018-04-23T19:08:11.685Z,100533.31
2018-04-23T19:10:39.299Z,100526.64
2018-04-23T19:13:07.624Z,100533.97
2018-04-23T19:15:35.230Z,100537.84
2018-04-23T19:18:02.777Z,100536.97
2018-04-23T19:20:30.702Z,100535.16
2018-04-23T19:22:58.356Z,100542.86
2018-04-23T19:25:26.473Z,100541.06
2018-04-23T19:27:54.437Z,100541.05
2018-04-23T19:30:22.310Z,100542.30
2018-04-23T19:32:49.893Z,100545.99
2018-04-23T19:35:17.541Z,100545.28
2018-04-23T19:37:45.267Z,100547.03
2018-04-23T19:40:12.883Z,100545.47
2018-04-23T19:42:40.446Z,100547.41
2018-04-23T19:45:08.006Z,100549.96
2018-04-23T19:47:35.565Z,100548.03
2018-04-23T19:50:03.095Z,100546.00
2018-04-23T19:52:30.656Z,100546.08
2018-04-23T19:54:58.373Z,100545.14
2018-04-23T19:57:26.005Z,100543.35
2018-04-23T19:59:54.390Z,100541.11
2018-04-23T20:02:21.990Z,100548.89
2018-04-23T20:04:49.568Z,100550.46
2018-04-23T20:07:17.206Z,100546.77
2018-04-23T20:09:44.787Z,100549.76
2018-04-23T20:12:12.377Z,100547.64
2018-04-23T20:14:39.996Z,100551.03
2018-04-23T20:17:07.569Z,100552.58
2018-04-23T20:19:35.355Z,100555.37
2018-04-23T20:22:02.921Z,100551.75
2018-04-23T20:24:30.517Z,100564.36
2018-04-23T20:26:58.139Z,100566.09
2018-04-23T20:29:25.723Z,100563.23
2018-04-23T20:31:54.253Z,100563.34
2018-04-23T20:34:21.819Z,100568.57
2018-04-23T20:36:49.390Z,100571.88
2018-04-23T20:39:17.111Z,100573.95
2018-04-23T20:41:44.736Z,100568.99
2018-04-23T20:44:12.345Z,100570.77
2018-04-23T20:46:39.930Z,100567.25
2018-04-23T20:49:07.566Z,100568.66
2018-04-23T20:51:35.152Z,100570.92
2018-04-23T20:54:02.711Z,100570.62
2018-04-23T20:56:30.251Z,100566.34
2018-04-23T20:58:57.845Z,100570.53
2018-04-23T21:01:25.590Z,100566.92
2018-04-23T21:03:53.136Z,100571.41
2018-04-23T21:06:20.693Z,100572.42
2018-04-23T21:08:48.250Z,100576.45
2018-04-23T21:11:15.892Z,100573.56
2018-04-23T21:13:43.453Z,100570.58
2018-04-23T21:16:11.266Z,100580.56
2018-04-23T21:18:38.865Z,100572.66
2018-04-23T21:21:06.570Z,100572.56
2018-04-23T21:23:34.188Z,100580.93
2018-04-23T21:26:01.829Z,100580.61
2018-04-23T21:28:29.376Z,100580.59
2018-04-23T21:30:56.931Z,100580.27
2018-04-23T21:33:24.473Z,100577.98
2018-04-23T21:35:52.029Z,100582.39
2018-04-23T21:38:19.603Z,100584.20
2018-04-23T21:40:47.187Z,100589.08
2018-04-23T21:43:14.762Z,100590.78
2018-04-23T21:45:42.300Z,100590.49
2018-04-23T21:48:09.893Z,100590.52
2018-04-23T21:50:37.477Z,100593.08
2018-04-23T21:53:05.027Z,100590.45
2018-04-23T21:55:32.593Z,100596.97
2018-04-23T21:58:00.128Z,100597.38
2018-04-23T22:00:27.680Z,100600.22
2018-04-23T22:02:55.268Z,100605.45
2018-04-23T22:05:22.898Z,100602.23
2018-04-23T22:07:50.416Z,100612.63
2018-04-23T22:10:17.992Z,100613.64
2018-04-23T22:12:45.555Z,100613.15
2018-04-23T22:15:13.271Z,100618.03
2018-04-23T22:17:40.840Z,100615.19
2018-04-23T22:20:08.408Z,100618.09
2018-04-23T22:22:35.953Z,100613.32
2018-04-23T22:25:03.497Z,100619.83
2018-04-23T22:27:31.059Z,100614.35
2018-04-23T22:29:58.624Z,100613.88
2018-04-23T22:32:26.200Z,100616.50
2018-04-23T22:34:53.787Z,100618.77
2018-04-23T22:37:21.446Z,100629.87
2018-04-23T22:39:48.998Z,100628.39
2018-04-23T22:42:16.598Z,100625.19
2018-04-23T22:44:44.167Z,100625.79
2018-04-23T22:47:11.735Z,100622.97
2018-04-23T22:49:39.304Z,100626.22
2018-04-23T22:52:06.867Z,100625.77
2018-04-23T22:54:34.405Z,100622.21
2018-04-23T22:57:02.024Z,100621.73
2018-04-23T22:59:29.587Z,100620.73
2018-04-23T23:01:57.138Z,100628.02
2018-04-23T23:04:24.712Z,100631.72
2018-04-23T23:06:52.311Z,100626.64
2018-04-23T23:09:19.861Z,100627.16
2018-04-23T23:11:47.441Z,100625.92
2018-04-23T23:14:15.020Z,100631.13
2018-04-23T23:16:42.602Z,100629.09
2018-04-23T23:19:10.143Z,100635.19
2018-04-23T23:21:37.739Z,100639.98
2018-04-23T23:24:05.282Z,100634.91
2018-04-23T23:26:32.820Z,100633.41
2018-04-23T23:29:00.406Z,100630.50
2018-04-23T23:31:28.014Z,100634.78
2018-04-23T23:33:55.565Z,100626.72
2018-04-23T23:36:23.117Z,100634.47
2018-04-23T23:38:50.715Z,100632.78
2018-04-23T23:41:18.277Z,100630.75
2018-04-23T23:43:45.847Z,100638.55
2018-04-23T23:46:13.395Z,100635.05
2018-04-23T23:48:40.973Z,100641.56
2018-04-23T23:51:08.527Z,100639.31
2018-04-23T23:53:36.081Z,100642.84
2018-04-23T23:56:03.656Z,100641.97
2018-04-23T23:58:31.212Z,100648.39
